Time;durP1;ratioP1;P1;durP2;ratioP2;P2;SDS_P1;SDS_P2;PMS_P1;PMS_P2;Temp;Humidity;BMP_temperature;BMP_pressure;BME280_temperature;BME280_humidity;BME280_pressure;Samples;Min_cycle;Max_cycle;Signal;HPM_P1;HPM_P2
2022/04/26 03:37:19;;;;;;;16.13;14.43;;;9.40;99.90;;;;;;5092855;28;20210;-82
2022/04/26 03:39:46;;;;;;;15.90;14.27;;;9.40;99.90;;;;;;5075068;28;20206;-82
2022/04/26 03:42:13;;;;;;;16.70;14.90;;;9.40;99.90;;;;;;5071889;28;20210;-81
2022/04/26 03:44:40;;;;;;;16.67;14.97;;;9.40;99.90;;;;;;5076915;28;20293;-83
2022/04/26 03:47:08;;;;;;;19.87;17.87;;;9.40;99.90;;;;;;5073415;28;20303;-81
2022/04/26 03:49:37;;;;;;;17.03;15.33;;;9.40;99.90;;;;;;5076933;28;20589;-82
2022/04/26 03:52:04;;;;;;;17.50;15.67;;;9.40;99.90;;;;;;5086247;28;20254;-83
2022/04/26 03:54:31;;;;;;;16.70;14.97;;;9.40;99.90;;;;;;5093120;28;20234;-79
2022/04/26 03:56:58;;;;;;;17.80;15.93;;;9.50;99.90;;;;;;5078925;28;20223;-79
2022/04/26 03:59:25;;;;;;;18.70;16.80;;;9.50;99.90;;;;;;5057322;28;20215;-79
2022/04/26 04:01:52;;;;;;;18.53;15.53;;;9.50;99.90;;;;;;5055630;28;20205;-80
2022/04/26 04:04:19;;;;;;;19.53;16.57;;;9.50;99.90;;;;;;5057132;28;20275;-78
2022/04/26 04:06:47;;;;;;;19.77;17.63;;;9.50;99.90;;;;;;5059705;28;20210;-80
2022/04/26 04:09:14;;;;;;;16.97;15.33;;;9.60;99.90;;;;;;5068835;28;20286;-80
2022/04/26 04:11:41;;;;;;;15.90;14.30;;;9.60;99.90;;;;;;5068556;28;20194;-81
2022/04/26 04:14:08;;;;;;;18.67;15.83;;;9.60;99.90;;;;;;5086051;28;20203;-79
2022/04/26 04:16:35;;;;;;;17.63;15.83;;;9.60;99.90;;;;;;5077309;28;20195;-80
2022/04/26 04:19:18;;;;;;;16.63;14.93;;;9.60;99.90;;;;;;5072259;28;20194;-80
2022/04/26 04:21:47;;;;;;;17.40;15.50;;;9.60;99.90;;;;;;5068997;28;20203;-78
2022/04/26 04:24:14;;;;;;;18.10;16.30;;;9.60;99.90;;;;;;5076528;28;20587;-78
2022/04/26 04:26:42;;;;;;;19.93;17.73;;;9.70;99.90;;;;;;5075959;28;20763;-79
2022/04/26 04:29:09;;;;;;;17.43;15.63;;;9.60;99.90;;;;;;5068648;28;20665;-79
2022/04/26 04:31:36;;;;;;;17.80;15.93;;;9.60;99.90;;;;;;5075890;28;20194;-79
2022/04/26 04:34:03;;;;;;;16.37;14.63;;;9.60;99.90;;;;;;5073012;28;20195;-79
2022/04/26 04:36:31;;;;;;;15.77;13.90;;;9.60;99.90;;;;;;5072766;28;20190;-78
2022/04/26 04:38:59;;;;;;;14.83;13.33;;;9.60;99.90;;;;;;5071399;28;20599;-81
2022/04/26 04:41:26;;;;;;;16.53;14.80;;;9.60;99.90;;;;;;5076423;28;20695;-80
2022/04/26 04:43:53;;;;;;;15.03;13.53;;;9.60;99.90;;;;;;5077550;28;20281;-81
2022/04/26 04:46:20;;;;;;;18.50;15.83;;;9.60;99.90;;;;;;5069046;28;20286;-80
2022/04/26 04:48:47;;;;;;;15.33;13.73;;;9.60;99.90;;;;;;5075767;28;20305;-83
2022/04/26 04:51:14;;;;;;;14.57;13.03;;;9.60;99.90;;;;;;5077992;28;20195;-81
2022/04/26 04:53:41;;;;;;;14.60;13.10;;;9.60;99.90;;;;;;5078082;28;20236;-79
2022/04/26 04:56:12;;;;;;;13.87;12.13;;;9.70;99.90;;;;;;5074497;28;20190;-79
2022/04/26 04:58:39;;;;;;;14.63;13.13;;;9.70;99.90;;;;;;5067777;28;20215;-82
2022/04/26 05:01:06;;;;;;;14.47;13.03;;;9.70;99.90;;;;;;5076383;28;20218;-81
2022/04/26 05:03:33;;;;;;;14.00;12.53;;;9.70;99.90;;;;;;5075854;28;20268;-81
2022/04/26 05:06:00;;;;;;;12.60;11.07;;;9.70;99.90;;;;;;5076808;28;20579;-81
2022/04/26 05:08:27;;;;;;;13.30;11.37;;;9.60;99.90;;;;;;5075213;28;20286;-78
2022/04/26 05:10:54;;;;;;;12.40;11.20;;;9.60;99.90;;;;;;5074352;28;20214;-81
2022/04/26 05:13:22;;;;;;;13.77;12.23;;;9.70;99.90;;;;;;5065926;28;20274;-79
2022/04/26 05:15:49;;;;;;;12.33;11.07;;;9.70;99.90;;;;;;5074196;28;20202;-81
2022/04/26 05:18:16;;;;;;;11.67;10.47;;;9.70;99.90;;;;;;5073919;28;20678;-79
2022/04/26 05:20:44;;;;;;;13.00;11.70;;;9.70;99.90;;;;;;5073271;28;20199;-79
2022/04/26 05:25:56;;;;;;;12.40;11.10;;;9.80;99.90;;;;;;5066215;28;20222;-81
2022/04/26 05:28:25;;;;;;;12.00;10.70;;;9.90;99.90;;;;;;5073707;28;20214;-80
2022/04/26 05:30:53;;;;;;;12.23;11.03;;;9.90;99.90;;;;;;5073888;28;20203;-81
2022/04/26 05:33:20;;;;;;;12.77;11.47;;;10.10;99.90;;;;;;5073692;28;20277;-79
2022/04/26 05:35:47;;;;;;;15.57;14.27;;;10.20;99.90;;;;;;5090790;28;20578;-80
2022/04/26 05:38:14;;;;;;;15.03;13.83;;;10.30;99.90;;;;;;5070463;28;20309;-80
2022/04/26 05:40:42;;;;;;;14.17;12.97;;;10.30;99.90;;;;;;5073130;28;20655;-80
2022/04/26 05:43:08;;;;;;;13.97;12.77;;;10.30;99.90;;;;;;5073366;28;20229;-80
2022/04/26 05:45:37;;;;;;;10.70;9.07;;;10.30;99.90;;;;;;5072355;28;20240;-79
2022/04/26 05:48:05;;;;;;;11.10;9.73;;;10.30;99.90;;;;;;5068587;28;20261;-81
2022/04/26 05:50:32;;;;;;;15.37;14.17;;;10.20;99.90;;;;;;5053052;28;20199;-80
2022/04/26 05:52:59;;;;;;;14.93;13.73;;;10.20;99.90;;;;;;5053248;28;20222;-81
2022/04/26 05:55:26;;;;;;;13.60;12.43;;;10.20;99.90;;;;;;5053097;28;20191;-80
2022/04/26 05:57:53;;;;;;;13.27;12.17;;;10.20;99.90;;;;;;5053117;28;20221;-80
2022/04/26 06:00:20;;;;;;;14.53;13.43;;;10.20;99.90;;;;;;5051007;28;20200;-79
2022/04/26 06:02:50;;;;;;;15.50;14.27;;;10.20;99.90;;;;;;5052812;28;20606;-80
2022/04/26 06:05:16;;;;;;;12.47;11.30;;;10.20;99.90;;;;;;5051049;28;20211;-79
2022/04/26 06:07:43;;;;;;;13.17;12.07;;;10.10;99.90;;;;;;5053289;28;20225;-80
2022/04/26 06:10:11;;;;;;;12.77;11.60;;;10.20;99.90;;;;;;5070528;28;20191;-79
2022/04/26 06:12:39;;;;;;;11.10;10.10;;;10.10;99.90;;;;;;5045549;28;20195;-81
2022/04/26 06:15:08;;;;;;;10.70;8.93;;;10.10;99.90;;;;;;5053422;28;20203;-80
2022/04/26 06:17:35;;;;;;;7.93;7.20;;;10.20;99.90;;;;;;5053584;28;20326;-79
2022/04/26 06:20:03;;;;;;;9.10;8.20;;;10.20;99.90;;;;;;5046488;28;20287;-81
2022/04/26 06:22:30;;;;;;;8.60;7.70;;;10.20;99.90;;;;;;5048694;28;20748;-80
2022/04/26 06:24:57;;;;;;;9.50;8.60;;;10.20;99.90;;;;;;5046620;28;20205;-80
2022/04/26 06:27:24;;;;;;;9.17;8.27;;;10.20;99.90;;;;;;5050001;28;20247;-79
2022/04/26 06:29:51;;;;;;;8.30;7.50;;;10.20;99.90;;;;;;5048230;28;20206;-80
2022/04/26 06:32:19;;;;;;;8.30;7.60;;;10.20;99.90;;;;;;5045575;28;20301;-80
2022/04/26 06:34:46;;;;;;;10.73;9.83;;;10.20;99.90;;;;;;5054904;28;20202;-80
2022/04/26 06:37:14;;;;;;;12.40;11.40;;;10.30;99.90;;;;;;5053747;28;20305;-80
2022/04/26 06:39:41;;;;;;;12.23;11.23;;;10.20;99.90;;;;;;5056515;28;20218;-81
2022/04/26 06:42:08;;;;;;;14.53;13.33;;;10.30;99.90;;;;;;5056767;28;20203;-80
2022/04/26 06:44:37;;;;;;;10.20;9.20;;;10.30;99.90;;;;;;5056524;28;20223;-79
2022/04/26 06:47:04;;;;;;;12.20;11.20;;;10.30;99.90;;;;;;5059782;28;20221;-81
2022/04/26 06:49:31;;;;;;;13.17;12.10;;;10.30;99.90;;;;;;5076825;28;20252;-79
2022/04/26 06:51:58;;;;;;;11.20;10.30;;;10.30;99.90;;;;;;5075936;28;20199;-79
2022/04/26 06:54:26;;;;;;;11.93;11.03;;;10.30;99.90;;;;;;5076943;28;20615;-80
2022/04/26 06:56:53;;;;;;;11.50;10.60;;;10.40;99.90;;;;;;5072113;28;20210;-79
2022/04/26 06:59:20;;;;;;;11.60;10.70;;;10.40;99.90;;;;;;5074694;28;20207;-81
2022/04/26 07:01:52;;;;;;;9.93;9.00;;;10.40;99.90;;;;;;5075851;28;20194;-80
2022/04/26 07:04:19;;;;;;;8.60;7.80;;;10.40;99.90;;;;;;5076580;28;20218;-80
2022/04/26 07:06:46;;;;;;;14.30;13.20;;;10.50;99.90;;;;;;5071673;28;20207;-79
2022/04/26 07:09:13;;;;;;;10.43;9.53;;;10.50;99.90;;;;;;5068137;28;20210;-81
2022/04/26 07:11:42;;;;;;;13.10;12.10;;;10.50;99.90;;;;;;5069505;28;20271;-79
2022/04/26 07:14:10;;;;;;;7.97;7.27;;;10.60;99.90;;;;;;5072488;28;20274;-79
2022/04/26 07:16:37;;;;;;;7.20;6.50;;;10.70;99.90;;;;;;5067819;28;20225;-79
2022/04/26 07:19:04;;;;;;;11.83;10.93;;;10.80;99.90;;;;;;5076352;28;20196;-79
2022/04/26 07:21:31;;;;;;;10.43;9.63;;;10.90;99.90;;;;;;5068066;28;20207;-81
2022/04/26 07:23:58;;;;;;;9.33;8.60;;;11.10;99.90;;;;;;5072382;28;20324;-81
2022/04/26 07:26:25;;;;;;;9.40;8.60;;;11.30;99.90;;;;;;5072357;28;20736;-80
2022/04/26 07:28:54;;;;;;;8.80;7.90;;;11.50;99.90;;;;;;5071631;28;20823;-80
2022/04/26 07:31:21;;;;;;;10.00;9.20;;;11.80;99.90;;;;;;5075614;28;20192;-80
2022/04/26 07:36:46;;;;;;;9.20;8.40;;;12.10;99.90;;;;;;5023611;28;20294;-81
2022/04/26 07:39:14;;;;;;;9.77;9.07;;;12.30;99.90;;;;;;5031080;28;20674;-80
2022/04/26 07:41:41;;;;;;;9.33;8.53;;;12.40;99.90;;;;;;5040393;28;20674;-80
2022/04/26 07:44:09;;;;;;;9.73;8.93;;;12.60;99.90;;;;;;5084536;28;20221;-81
2022/04/26 07:46:38;;;;;;;9.40;8.50;;;12.60;99.90;;;;;;5072379;28;20207;-81
2022/04/26 07:49:05;;;;;;;7.43;5.87;;;12.70;99.90;;;;;;5064583;28;20216;-79
2022/04/26 07:51:33;;;;;;;10.07;8.87;;;12.70;99.90;;;;;;5054949;28;20739;-80
2022/04/26 07:54:00;;;;;;;8.27;5.93;;;12.60;99.90;;;;;;5055023;28;20191;-80
2022/04/26 07:56:28;;;;;;;6.53;5.87;;;12.50;99.90;;;;;;5054796;28;20196;-81
2022/04/26 07:58:58;;;;;;;6.00;5.50;;;12.50;99.90;;;;;;5054939;28;20586;-80
2022/04/26 08:01:26;;;;;;;5.77;5.27;;;12.50;99.90;;;;;;5055105;28;20196;-81
2022/04/26 08:03:56;;;;;;;6.50;5.90;;;12.50;99.90;;;;;;5071982;28;20219;-79
2022/04/26 08:06:23;;;;;;;5.77;5.27;;;12.60;99.90;;;;;;5071313;28;20672;-81
2022/04/26 08:08:54;;;;;;;6.37;5.77;;;12.60;99.90;;;;;;5071604;28;20229;-81
2022/04/26 08:11:24;;;;;;;6.50;5.67;;;12.70;99.90;;;;;;5056931;28;20705;-81
2022/04/26 08:13:50;;;;;;;6.40;5.80;;;12.70;99.90;;;;;;5071852;28;20248;-81
2022/04/26 08:16:18;;;;;;;6.70;6.10;;;12.60;99.90;;;;;;5054824;28;20626;-80
2022/04/26 08:18:46;;;;;;;5.90;5.40;;;12.60;99.90;;;;;;5054899;28;20252;-81
2022/04/26 08:21:14;;;;;;;6.70;5.67;;;12.60;99.90;;;;;;5054844;28;20290;-79
2022/04/26 08:29:08;;;;;;;8.03;6.50;;;12.40;99.90;;;;;;5071267;28;20187;-80
2022/04/26 08:31:35;;;;;;;6.33;5.83;;;12.50;99.90;;;;;;5071500;28;20639;-79
2022/04/26 08:34:04;;;;;;;6.70;6.00;;;12.60;99.90;;;;;;5055348;28;20219;-79
2022/04/26 08:36:31;;;;;;;6.93;6.33;;;12.80;99.90;;;;;;5054010;28;20265;-79
2022/04/26 08:38:59;;;;;;;7.87;6.33;;;12.90;99.90;;;;;;5055194;28;20227;-81
2022/04/26 08:41:26;;;;;;;6.67;5.83;;;12.90;99.90;;;;;;5071035;28;20206;-79
2022/04/26 08:43:53;;;;;;;7.77;6.07;;;12.80;99.90;;;;;;5054235;28;20306;-80
2022/04/26 08:46:20;;;;;;;6.67;6.07;;;12.90;99.90;;;;;;5071008;28;20610;-79
2022/04/26 08:51:33;;;;;;;10.33;9.47;;;12.90;99.90;;;;;;5073891;28;20212;-80
2022/04/26 08:54:00;;;;;;;9.20;8.50;;;12.90;99.90;;;;;;5084122;28;20192;-80
2022/04/26 08:56:27;;;;;;;11.03;10.23;;;12.90;99.90;;;;;;5088806;28;20628;-80
2022/04/26 08:58:54;;;;;;;10.60;9.80;;;13.00;99.90;;;;;;5067026;28;20309;-79
2022/04/26 09:01:24;;;;;;;10.10;9.33;;;13.00;99.90;;;;;;5073935;28;20294;-80
2022/04/26 09:03:56;;;;;;;9.50;8.70;;;13.00;99.90;;;;;;5089234;28;20305;-80
2022/04/26 09:06:25;;;;;;;8.83;8.13;;;13.00;99.90;;;;;;5069833;28;20196;-79
2022/04/26 09:09:07;;;;;;;11.10;10.30;;;13.00;99.90;;;;;;5082521;28;20256;-80
2022/04/26 09:11:34;;;;;;;10.67;9.97;;;13.20;99.90;;;;;;5065287;28;20199;-80
2022/04/26 09:14:02;;;;;;;11.03;10.20;;;13.30;99.90;;;;;;5074023;28;20191;-81
2022/04/26 09:16:29;;;;;;;10.77;10.07;;;13.40;99.90;;;;;;5067850;28;20658;-79
2022/04/26 09:18:58;;;;;;;10.43;9.53;;;13.50;99.90;;;;;;5067014;28;20222;-81
2022/04/26 09:21:27;;;;;;;10.97;10.23;;;13.60;99.90;;;;;;5073023;28;20656;-80
2022/04/26 09:23:58;;;;;;;10.77;9.87;;;13.60;99.90;;;;;;5073578;28;20230;-79
2022/04/26 09:26:32;;;;;;;10.00;9.30;;;13.60;99.90;;;;;;5071833;28;20206;-80
2022/04/26 09:28:59;;;;;;;6.00;5.40;;;13.70;99.90;;;;;;5070486;28;20218;-80
2022/04/26 09:31:28;;;;;;;11.43;10.63;;;13.90;99.90;;;;;;5069572;28;20656;-79
2022/04/26 09:33:57;;;;;;;10.40;9.60;;;14.00;99.90;;;;;;5090577;28;20206;-81
2022/04/26 09:36:28;;;;;;;7.07;6.47;;;14.20;99.90;;;;;;5068087;28;20200;-81
2022/04/26 09:38:58;;;;;;;10.03;9.33;;;14.40;99.90;;;;;;5069230;28;20219;-81
2022/04/26 09:41:27;;;;;;;11.43;10.67;;;14.60;99.90;;;;;;5071342;28;20206;-81
2022/04/26 09:44:01;;;;;;;11.07;10.27;;;14.80;99.90;;;;;;5073317;28;20305;-79
2022/04/26 09:46:46;;;;;;;11.53;10.73;;;14.70;99.90;;;;;;5071805;28;20645;-81
2022/04/26 09:49:15;;;;;;;10.30;9.60;;;14.50;99.90;;;;;;5070195;28;20584;-80
2022/04/26 09:51:42;;;;;;;11.63;10.53;;;14.30;99.90;;;;;;5078083;28;20654;-81
2022/04/26 09:54:11;;;;;;;11.97;11.07;;;14.20;99.90;;;;;;5081563;28;20324;-79
2022/04/26 09:56:40;;;;;;;8.97;8.37;;;14.00;99.90;;;;;;5070559;28;20198;-80
2022/04/26 09:59:07;;;;;;;7.57;6.97;;;13.90;99.90;;;;;;5072980;28;20190;-81
2022/04/26 10:01:39;;;;;;;11.50;10.67;;;13.80;99.90;;;;;;5072797;28;20196;-80
2022/04/26 10:04:08;;;;;;;10.07;9.37;;;13.90;99.90;;;;;;5066855;28;20235;-81
2022/04/26 10:06:36;;;;;;;9.50;8.80;;;14.10;99.90;;;;;;5081906;28;20198;-80
2022/04/26 10:09:04;;;;;;;9.30;8.60;;;14.40;99.90;;;;;;5066898;28;20205;-81
2022/04/26 10:11:32;;;;;;;10.43;9.63;;;14.50;99.90;;;;;;5089179;28;20200;-81
2022/04/26 10:14:02;;;;;;;9.30;8.50;;;15.10;99.90;;;;;;5073509;28;20202;-81
2022/04/26 10:16:30;;;;;;;8.23;7.53;;;15.40;99.90;;;;;;5073486;28;20202;-81
2022/04/26 10:19:04;;;;;;;9.03;8.23;;;15.30;99.90;;;;;;5073626;28;20220;-81
2022/04/26 10:21:46;;;;;;;7.43;6.33;;;15.60;99.90;;;;;;5069064;28;20206;-80
2022/04/26 10:24:15;;;;;;;5.93;5.43;;;15.60;99.90;;;;;;5067170;28;20740;-81
2022/04/26 10:26:43;;;;;;;9.27;8.37;;;15.80;99.90;;;;;;5067061;28;20199;-80
2022/04/26 10:29:16;;;;;;;7.77;7.03;;;15.80;99.90;;;;;;5067132;28;20212;-80
2022/04/26 10:31:44;;;;;;;8.20;7.40;;;15.90;99.90;;;;;;5065445;28;20214;-80
2022/04/26 10:34:25;;;;;;;7.43;6.73;;;16.20;99.90;;;;;;5072871;28;20288;-81
2022/04/26 10:36:53;;;;;;;9.37;8.53;;;16.30;99.90;;;;;;5066725;28;20337;-81
2022/04/26 10:39:30;;;;;;;5.87;5.27;;;16.60;99.90;;;;;;5072782;28;20198;-80
2022/04/26 10:41:59;;;;;;;6.27;5.70;;;16.80;99.90;;;;;;5066685;28;20721;-81
2022/04/26 10:44:38;;;;;;;9.63;8.77;;;16.80;99.90;;;;;;5071484;28;20249;-80
2022/04/26 10:47:28;;;;;;;8.57;7.87;;;17.00;99.90;;;;;;5064436;28;20234;-80
2022/04/26 10:49:58;;;;;;;7.37;6.67;;;17.10;99.90;;;;;;5046917;28;20290;-81
2022/04/26 10:52:48;;;;;;;8.50;6.70;;;17.30;99.90;;;;;;5045676;28;20204;-80
2022/04/26 10:55:18;;;;;;;9.20;8.60;;;17.40;99.90;;;;;;5053202;28;20222;-81
2022/04/26 10:57:53;;;;;;;8.10;7.40;;;17.30;99.90;;;;;;5049344;28;20266;-81
2022/04/26 11:00:26;;;;;;;5.60;5.10;;;16.90;99.90;;;;;;5050879;28;20205;-79
2022/04/26 11:02:59;;;;;;;4.97;4.43;;;16.80;99.90;;;;;;5053229;28;20198;-81
2022/04/26 11:05:27;;;;;;;7.77;7.17;;;16.80;99.90;;;;;;5053906;28;20298;-80
2022/04/26 11:07:55;;;;;;;5.07;4.67;;;16.50;99.90;;;;;;5049178;28;20242;-80
2022/04/26 11:10:23;;;;;;;6.17;5.00;;;16.40;99.90;;;;;;5070644;28;20195;-80
2022/04/26 11:12:52;;;;;;;11.10;10.40;;;16.20;99.90;;;;;;5070322;28;20220;-81
2022/04/26 11:15:21;;;;;;;9.30;8.70;;;15.80;99.90;;;;;;5051097;28;20195;-79
2022/04/26 11:17:49;;;;;;;8.43;7.73;;;15.60;99.90;;;;;;5053054;28;20273;-81
2022/04/26 11:20:18;;;;;;;9.57;8.87;;;15.20;99.90;;;;;;5054601;28;20194;-80
2022/04/26 11:22:47;;;;;;;3.80;3.50;;;15.00;99.90;;;;;;5049661;28;20611;-80
2022/04/26 11:28:05;;;;;;;5.50;5.10;;;14.60;99.90;;;;;;5073093;28;20235;-81
2022/04/26 11:30:35;;;;;;;8.70;7.90;;;14.50;99.90;;;;;;5052116;28;20233;-81
2022/04/26 11:33:04;;;;;;;7.07;6.47;;;14.70;99.90;;;;;;5056949;28;20198;-81
2022/04/26 11:35:32;;;;;;;7.20;6.70;;;15.20;99.90;;;;;;5052171;28;20206;-81
2022/04/26 11:38:04;;;;;;;5.63;5.13;;;15.50;99.90;;;;;;5056902;28;20709;-80
2022/04/26 11:40:32;;;;;;;5.13;4.63;;;15.90;99.90;;;;;;5051532;28;20217;-80
2022/04/26 11:43:08;;;;;;;8.30;7.57;;;16.20;99.90;;;;;;5056662;28;20194;-80
2022/04/26 11:45:36;;;;;;;4.73;4.27;;;16.50;99.90;;;;;;5054200;28;20245;-81
2022/04/26 11:48:04;;;;;;;5.47;4.97;;;16.60;99.90;;;;;;5085164;28;20225;-80
2022/04/26 11:50:32;;;;;;;8.57;7.33;;;16.60;99.90;;;;;;5076859;28;20202;-79
2022/04/26 11:53:03;;;;;;;9.47;8.87;;;16.60;99.90;;;;;;5076687;28;20614;-81
2022/04/26 11:55:32;;;;;;;4.43;4.03;;;16.70;99.90;;;;;;5076472;28;20198;-81
2022/04/26 11:58:12;;;;;;;5.03;4.50;;;16.70;99.90;;;;;;5076295;28;20221;-81
2022/04/26 12:00:51;;;;;;;4.67;4.10;;;16.80;99.90;;;;;;5071530;28;20556;-81
2022/04/26 12:03:18;;;;;;;6.70;6.13;;;17.00;99.90;;;;;;5071933;28;20201;-80
2022/04/26 12:05:47;;;;;;;5.20;4.70;;;17.10;99.90;;;;;;5071343;28;20220;-81
2022/04/26 12:08:14;;;;;;;8.80;8.13;;;17.30;99.90;;;;;;5075407;28;20226;-81
2022/04/26 12:10:41;;;;;;;8.60;8.00;;;17.30;99.90;;;;;;5076835;28;20198;-80
2022/04/26 12:13:11;;;;;;;8.90;8.30;;;17.30;99.90;;;;;;5078111;28;20608;-81
2022/04/26 12:15:39;;;;;;;8.43;7.73;;;17.20;99.90;;;;;;5067958;28;20195;-81
2022/04/26 12:18:11;;;;;;;9.20;8.60;;;17.30;99.90;;;;;;5069131;28;20690;-80
2022/04/26 12:20:55;;;;;;;9.50;8.80;;;17.10;99.90;;;;;;5068903;28;20281;-80
2022/04/26 12:23:23;;;;;;;8.50;8.00;;;16.90;99.90;;;;;;5088300;28;20206;-80
2022/04/26 12:25:54;;;;;;;7.93;7.43;;;16.70;99.90;;;;;;5070338;28;20264;-80
2022/04/26 12:28:25;;;;;;;7.80;7.30;;;16.60;99.90;;;;;;5070844;28;20221;-79
2022/04/26 12:30:53;;;;;;;8.40;7.90;;;16.70;99.90;;;;;;5074453;28;20194;-79
2022/04/26 12:33:29;;;;;;;3.43;3.13;;;16.80;99.90;;;;;;5074767;28;20239;-81
2022/04/26 12:36:01;;;;;;;3.20;3.00;;;16.90;99.90;;;;;;5070222;28;20193;-80
2022/04/26 12:38:28;;;;;;;3.30;3.07;;;16.70;99.90;;;;;;5068828;28;20254;-81
2022/04/26 12:41:03;;;;;;;3.60;3.30;;;16.50;99.90;;;;;;5067633;28;20557;-80
2022/04/26 12:43:33;;;;;;;9.00;8.40;;;16.40;99.90;;;;;;5067166;28;20264;-80
2022/04/26 12:46:03;;;;;;;5.67;5.27;;;16.40;99.90;;;;;;5072031;28;20217;-80
2022/04/26 12:51:20;;;;;;;5.07;4.20;;;16.50;99.90;;;;;;5071535;28;20202;-79
2022/04/26 12:53:48;;;;;;;8.37;7.40;;;16.20;99.90;;;;;;5072012;28;20205;-79
2022/04/26 12:56:16;;;;;;;10.67;9.77;;;16.00;99.90;;;;;;5054712;28;20200;-80
2022/04/26 12:58:46;;;;;;;6.70;6.07;;;15.70;99.90;;;;;;5071271;28;20219;-80
2022/04/26 13:01:14;;;;;;;8.73;8.13;;;15.60;99.90;;;;;;5071778;28;20203;-80
2022/04/26 13:03:42;;;;;;;3.47;3.23;;;15.50;99.90;;;;;;5071821;28;20198;-80
2022/04/26 13:06:11;;;;;;;3.53;3.23;;;15.70;99.90;;;;;;5070855;28;20217;-80
2022/04/26 13:08:39;;;;;;;3.17;2.90;;;15.80;99.90;;;;;;5071424;28;20218;-80
2022/04/26 13:11:06;;;;;;;3.50;2.90;;;16.00;99.90;;;;;;5055221;28;20223;-79
2022/04/26 13:13:35;;;;;;;3.23;2.93;;;16.20;99.90;;;;;;5072081;28;20208;-80
2022/04/26 13:16:04;;;;;;;3.17;2.90;;;16.10;99.90;;;;;;5073000;28;20284;-80
2022/04/26 13:18:31;;;;;;;4.10;3.80;;;16.00;99.90;;;;;;5070946;28;20299;-80
2022/04/26 13:20:59;;;;;;;2.87;2.67;;;15.80;99.90;;;;;;5070887;28;20665;-80
2022/04/26 13:23:29;;;;;;;3.63;3.40;;;15.70;99.90;;;;;;5054728;28;20215;-80
2022/04/26 13:25:57;;;;;;;4.27;3.97;;;15.70;99.90;;;;;;5053957;28;20225;-79
2022/04/26 13:28:24;;;;;;;7.30;6.80;;;15.60;99.90;;;;;;5054508;28;20218;-80
2022/04/26 13:30:51;;;;;;;4.40;4.10;;;15.60;99.90;;;;;;5070876;28;20194;-80
2022/04/26 13:33:20;;;;;;;4.10;3.70;;;15.60;99.90;;;;;;5070918;28;20290;-80
2022/04/26 13:35:47;;;;;;;5.47;5.00;;;15.60;99.90;;;;;;5071328;28;20209;-80
2022/04/26 13:38:16;;;;;;;9.30;8.70;;;15.60;99.90;;;;;;5069900;28;20250;-79
2022/04/26 13:40:43;;;;;;;4.77;4.30;;;15.60;99.90;;;;;;5070568;28;20200;-80
2022/04/26 13:43:11;;;;;;;4.67;4.37;;;15.60;99.90;;;;;;5070865;28;20213;-80
2022/04/26 13:45:39;;;;;;;8.90;8.30;;;15.50;99.90;;;;;;5046323;28;20371;-80
2022/04/26 13:48:11;;;;;;;4.87;4.47;;;15.20;99.90;;;;;;5098992;22;20301;-79
2022/04/26 13:50:39;;;;;;;5.00;4.03;;;15.10;99.90;;;;;;5089989;28;20193;-82
2022/04/26 13:53:07;;;;;;;9.40;8.57;;;15.20;99.90;;;;;;5093108;28;20197;-81
2022/04/26 13:55:34;;;;;;;7.40;6.80;;;15.30;99.90;;;;;;5094310;28;20197;-83
2022/04/26 13:58:03;;;;;;;7.00;6.40;;;15.50;99.90;;;;;;5081219;28;20345;-82
2022/04/26 14:00:34;;;;;;;9.27;8.67;;;15.60;99.90;;;;;;5094465;28;20204;-82
2022/04/26 14:03:02;;;;;;;5.53;5.13;;;15.50;99.90;;;;;;5084444;28;20306;-82
2022/04/26 14:05:30;;;;;;;5.43;4.10;;;15.40;99.90;;;;;;5102126;27;20698;-83
2022/04/26 14:07:58;;;;;;;3.90;3.60;;;15.10;99.90;;;;;;5082369;28;20290;-80
2022/04/26 14:10:25;;;;;;;8.83;8.13;;;14.80;99.90;;;;;;5084638;28;20670;-79
2022/04/26 14:12:52;;;;;;;5.57;5.07;;;14.60;99.90;;;;;;5086209;28;20642;-81
2022/04/26 14:23:42;;;;;;;11.23;10.30;;;14.00;99.90;;;;;;5096345;28;20219;-80
2022/04/26 14:26:09;;;;;;;5.93;5.43;;;13.80;99.90;;;;;;5094105;28;20568;-80
2022/04/26 14:28:36;;;;;;;4.10;3.70;;;13.60;99.90;;;;;;5087331;28;20670;-80
2022/04/26 14:31:03;;;;;;;7.93;7.33;;;13.40;99.90;;;;;;5092864;28;20194;-79
2022/04/26 14:33:31;;;;;;;8.00;6.10;;;13.40;99.90;;;;;;5090324;28;20591;-80
2022/04/26 14:35:59;;;;;;;4.27;3.87;;;13.20;99.90;;;;;;5067020;28;20649;-78
2022/04/26 14:38:27;;;;;;;4.33;3.87;;;13.00;99.90;;;;;;5084001;28;20217;-80
2022/04/26 14:40:56;;;;;;;7.23;6.53;;;12.80;99.90;;;;;;5092541;28;20197;-79
2022/04/26 14:43:24;;;;;;;10.03;9.33;;;12.50;99.90;;;;;;5090271;28;20234;-79
2022/04/26 14:45:53;;;;;;;11.43;10.20;;;12.30;99.90;;;;;;5086994;28;20243;-80
2022/04/26 14:48:20;;;;;;;10.70;10.00;;;12.20;99.90;;;;;;5093329;28;20234;-80
2022/04/26 14:50:47;;;;;;;10.87;10.07;;;12.10;99.90;;;;;;5087268;28;20294;-80
2022/04/26 14:53:15;;;;;;;11.30;10.50;;;12.00;99.90;;;;;;5089965;28;20210;-80
2022/04/26 14:55:42;;;;;;;11.23;10.43;;;12.00;99.90;;;;;;5092030;28;20680;-80
2022/04/26 14:58:14;;;;;;;5.10;4.60;;;12.10;99.90;;;;;;5087705;28;20239;-80
2022/04/26 15:00:41;;;;;;;4.67;4.10;;;12.40;99.90;;;;;;5086466;28;20207;-80
2022/04/26 15:03:08;;;;;;;4.20;3.80;;;12.70;99.90;;;;;;5085293;28;20192;-81
2022/04/26 15:05:35;;;;;;;4.30;3.90;;;13.00;99.90;;;;;;5099923;27;20587;-79
2022/04/26 15:10:46;;;;;;;4.87;3.90;;;13.00;99.90;;;;;;5086184;28;20191;-79
2022/04/26 15:18:43;;;;;;;8.57;7.90;;;13.30;99.90;;;;;;5131685;27;20212;-79
2022/04/26 15:21:10;;;;;;;5.73;5.23;;;13.30;99.90;;;;;;5111568;27;20236;-80
2022/04/26 15:23:37;;;;;;;6.67;6.07;;;13.30;99.90;;;;;;5096258;28;20242;-79
2022/04/26 15:26:06;;;;;;;4.87;4.43;;;13.30;99.90;;;;;;5097303;28;20312;-80
2022/04/26 15:28:34;;;;;;;5.10;4.53;;;13.30;99.90;;;;;;5094713;28;20225;-80
2022/04/26 15:31:02;;;;;;;8.00;7.27;;;13.10;99.90;;;;;;5089489;28;20194;-80
2022/04/26 15:33:29;;;;;;;6.83;6.23;;;12.90;99.90;;;;;;5092727;28;20582;-80
2022/04/26 15:35:57;;;;;;;4.27;3.87;;;12.90;99.90;;;;;;5089794;28;20193;-80
2022/04/26 15:38:27;;;;;;;5.10;4.60;;;12.80;99.90;;;;;;5096711;28;20270;-80
2022/04/26 15:41:01;;;;;;;4.70;4.27;;;12.70;99.90;;;;;;5095159;28;20196;-80
2022/04/26 15:43:29;;;;;;;5.00;4.50;;;12.70;99.90;;;;;;5095009;28;20199;-80
2022/04/26 15:45:58;;;;;;;5.80;5.20;;;12.80;99.90;;;;;;5096546;28;20217;-80
2022/04/26 15:48:25;;;;;;;5.13;4.63;;;12.80;99.90;;;;;;5087799;28;20225;-80
2022/04/26 15:50:53;;;;;;;4.70;4.20;;;12.80;99.90;;;;;;5084964;28;20225;-81
2022/04/26 15:53:20;;;;;;;7.70;7.00;;;12.90;99.90;;;;;;5087346;28;20383;-80
2022/04/26 15:55:47;;;;;;;5.90;4.57;;;12.90;99.90;;;;;;5086469;28;20197;-80
2022/04/26 15:58:14;;;;;;;4.83;4.30;;;13.10;99.90;;;;;;5087858;28;20217;-79
2022/04/26 16:00:41;;;;;;;6.90;6.33;;;13.20;99.90;;;;;;5094272;28;20197;-79
2022/04/26 16:03:10;;;;;;;6.23;4.93;;;13.30;99.90;;;;;;5096207;28;20488;-78
2022/04/26 16:05:37;;;;;;;5.50;4.33;;;13.50;99.90;;;;;;5078418;28;20296;-83
2022/04/26 16:08:05;;;;;;;6.57;4.33;;;13.60;99.90;;;;;;5099663;28;20276;-82
2022/04/26 16:21:31;;;;;;;4.87;4.17;;;13.20;99.90;;;;;;5085651;28;20347;-78
2022/04/26 16:24:00;;;;;;;4.47;4.07;;;13.30;99.90;;;;;;5092962;28;20193;-78
2022/04/26 16:26:27;;;;;;;4.50;3.73;;;13.50;99.90;;;;;;5088227;27;20282;-79
2022/04/26 16:28:55;;;;;;;5.83;4.27;;;13.60;99.90;;;;;;5079498;28;20225;-78
2022/04/26 16:31:28;;;;;;;4.87;4.33;;;13.60;99.90;;;;;;5076511;28;20208;-78
2022/04/26 16:33:57;;;;;;;5.10;4.60;;;13.50;99.90;;;;;;5092928;28;20301;-77
2022/04/26 16:36:25;;;;;;;5.90;4.60;;;13.40;99.90;;;;;;5088311;28;20197;-78
2022/04/26 16:38:52;;;;;;;5.10;4.60;;;13.30;99.90;;;;;;5093578;28;20216;-78
2022/04/26 16:41:20;;;;;;;5.20;4.43;;;13.30;99.90;;;;;;5091120;27;20193;-79
2022/04/26 16:43:48;;;;;;;5.10;4.53;;;13.40;99.90;;;;;;5096342;27;20212;-78
2022/04/26 16:46:16;;;;;;;4.83;4.37;;;13.40;99.90;;;;;;5101470;27;20276;-78
2022/04/26 16:48:43;;;;;;;5.30;4.20;;;13.30;99.90;;;;;;5092655;28;20239;-78
2022/04/26 16:51:11;;;;;;;4.33;3.93;;;13.30;99.90;;;;;;5090867;28;20193;-79
2022/04/26 16:53:38;;;;;;;6.07;4.10;;;13.40;99.90;;;;;;5089857;28;20285;-79
2022/04/26 16:56:06;;;;;;;4.30;3.90;;;13.50;99.90;;;;;;5094769;28;20535;-78
2022/04/26 16:58:32;;;;;;;4.90;4.40;;;13.60;99.90;;;;;;5111102;27;20214;-80
2022/04/26 17:00:59;;;;;;;4.73;4.33;;;13.60;99.90;;;;;;5085735;28;20657;-80
2022/04/26 17:03:26;;;;;;;4.43;3.73;;;13.50;99.90;;;;;;5100041;28;20193;-78
2022/04/26 17:05:53;;;;;;;3.80;3.50;;;13.50;99.90;;;;;;5112975;27;20588;-78
2022/04/26 17:08:22;;;;;;;4.87;4.33;;;13.50;99.90;;;;;;5096143;28;20237;-78
2022/04/26 17:10:50;;;;;;;4.40;3.93;;;13.40;99.90;;;;;;5116437;27;20591;-78